sensor_id;sensor_type;location;lat;lon;timestamp;temperature;humidity
37242;DHT22;23135;51.078;12.108;2023-05-29T00:01:31;10.10;99.90
37242;DHT22;23135;51.078;12.108;2023-05-29T00:03:57;10.10;99.90
37242;DHT22;23135;51.078;12.108;2023-05-29T00:06:23;9.70;99.90
37242;DHT22;23135;51.078;12.108;2023-05-29T00:08:49;9.50;99.90
37242;DHT22;23135;51.078;12.108;2023-05-29T00:11:14;9.50;99.90
37242;DHT22;23135;51.078;12.108;2023-05-29T00:13:40;9.50;99.90
37242;DHT22;23135;51.078;12.108;2023-05-29T00:16:06;9.50;99.90
37242;DHT22;23135;51.078;12.108;2023-05-29T00:18:32;9.50;99.90
37242;DHT22;23135;51.078;12.108;2023-05-29T00:20:57;9.50;99.90
37242;DHT22;23135;51.078;12.108;2023-05-29T00:23:23;9.50;99.90
37242;DHT22;23135;51.078;12.108;2023-05-29T00:25:48;9.50;99.90
37242;DHT22;23135;51.078;12.108;2023-05-29T00:28:14;9.40;99.90
37242;DHT22;23135;51.078;12.108;2023-05-29T00:30:40;9.40;99.90
37242;DHT22;23135;51.078;12.108;2023-05-29T00:33:05;9.30;99.90
37242;DHT22;23135;51.078;12.108;2023-05-29T00:35:31;9.30;99.90
37242;DHT22;23135;51.078;12.108;2023-05-29T00:37:58;9.30;99.90
37242;DHT22;23135;51.078;12.108;2023-05-29T00:40:24;9.20;99.90
37242;DHT22;23135;51.078;12.108;2023-05-29T00:42:50;9.20;99.90
37242;DHT22;23135;51.078;12.108;2023-05-29T00:45:15;9.20;99.90
37242;DHT22;23135;51.078;12.108;2023-05-29T00:47:44;9.10;99.90
37242;DHT22;23135;51.078;12.108;2023-05-29T00:50:11;9.10;99.90
37242;DHT22;23135;51.078;12.108;2023-05-29T00:52:40;9.10;99.90
37242;DHT22;23135;51.078;12.108;2023-05-29T00:55:07;9.10;99.90
37242;DHT22;23135;51.078;12.108;2023-05-29T00:57:35;9.10;99.90
37242;DHT22;23135;51.078;12.108;2023-05-29T01:00:02;9.10;99.90
37242;DHT22;23135;51.078;12.108;2023-05-29T01:02:30;9.10;99.90
37242;DHT22;23135;51.078;12.108;2023-05-29T01:04:56;9.00;99.90
37242;DHT22;23135;51.078;12.108;2023-05-29T01:07:22;9.10;99.90
37242;DHT22;23135;51.078;12.108;2023-05-29T01:09:48;9.00;99.90
37242;DHT22;23135;51.078;12.108;2023-05-29T01:18:03;9.00;99.90
37242;DHT22;23135;51.078;12.108;2023-05-29T01:28:40;9.10;99.90
37242;DHT22;23135;51.078;12.108;2023-05-29T01:31:07;9.00;99.90
37242;DHT22;23135;51.078;12.108;2023-05-29T01:33:33;9.00;99.90
37242;DHT22;23135;51.078;12.108;2023-05-29T01:35:59;8.90;99.90
37242;DHT22;23135;51.078;12.108;2023-05-29T01:38:24;8.90;99.90
37242;DHT22;23135;51.078;12.108;2023-05-29T01:40:50;8.90;99.90
37242;DHT22;23135;51.078;12.108;2023-05-29T01:43:16;8.90;99.90
37242;DHT22;23135;51.078;12.108;2023-05-29T01:45:42;8.90;99.90
37242;DHT22;23135;51.078;12.108;2023-05-29T01:48:09;8.80;99.90
37242;DHT22;23135;51.078;12.108;2023-05-29T01:50:35;8.90;99.90
37242;DHT22;23135;51.078;12.108;2023-05-29T01:53:01;8.90;99.90
37242;DHT22;23135;51.078;12.108;2023-05-29T01:55:26;8.90;99.90
37242;DHT22;23135;51.078;12.108;2023-05-29T01:57:52;8.90;99.90
37242;DHT22;23135;51.078;12.108;2023-05-29T02:00:19;8.80;99.90
37242;DHT22;23135;51.078;12.108;2023-05-29T02:02:44;8.70;99.90
37242;DHT22;23135;51.078;12.108;2023-05-29T02:05:10;8.70;99.90
37242;DHT22;23135;51.078;12.108;2023-05-29T02:07:36;8.60;99.90
37242;DHT22;23135;51.078;12.108;2023-05-29T02:10:05;8.60;99.90
37242;DHT22;23135;51.078;12.108;2023-05-29T02:12:31;8.60;99.90
37242;DHT22;23135;51.078;12.108;2023-05-29T02:14:56;8.60;99.90
37242;DHT22;23135;51.078;12.108;2023-05-29T02:17:22;8.60;99.90
37242;DHT22;23135;51.078;12.108;2023-05-29T02:19:48;8.60;99.90
37242;DHT22;23135;51.078;12.108;2023-05-29T02:22:14;8.70;99.90
37242;DHT22;23135;51.078;12.108;2023-05-29T02:24:39;8.70;99.90
37242;DHT22;23135;51.078;12.108;2023-05-29T02:27:05;8.60;99.90
37242;DHT22;23135;51.078;12.108;2023-05-29T02:29:32;8.60;99.90
37242;DHT22;23135;51.078;12.108;2023-05-29T02:31:57;8.60;99.90
37242;DHT22;23135;51.078;12.108;2023-05-29T02:34:23;8.50;99.90
37242;DHT22;23135;51.078;12.108;2023-05-29T02:36:50;8.50;99.90
37242;DHT22;23135;51.078;12.108;2023-05-29T02:39:17;8.40;99.90
37242;DHT22;23135;51.078;12.108;2023-05-29T02:41:43;8.40;99.90
37242;DHT22;23135;51.078;12.108;2023-05-29T02:44:08;8.30;99.90
37242;DHT22;23135;51.078;12.108;2023-05-29T02:46:34;8.30;99.90
37242;DHT22;23135;51.078;12.108;2023-05-29T02:48:59;8.30;99.90
37242;DHT22;23135;51.078;12.108;2023-05-29T02:51:25;8.20;99.90
37242;DHT22;23135;51.078;12.108;2023-05-29T02:53:50;8.20;99.90
37242;DHT22;23135;51.078;12.108;2023-05-29T02:56:16;8.30;99.90
37242;DHT22;23135;51.078;12.108;2023-05-29T02:58:42;8.20;99.90
37242;DHT22;23135;51.078;12.108;2023-05-29T03:01:08;8.20;99.90
37242;DHT22;23135;51.078;12.108;2023-05-29T03:03:34;8.10;99.90
37242;DHT22;23135;51.078;12.108;2023-05-29T03:05:59;8.10;99.90
37242;DHT22;23135;51.078;12.108;2023-05-29T03:08:26;8.10;99.90
37242;DHT22;23135;51.078;12.108;2023-05-29T03:10:52;8.10;99.90
37242;DHT22;23135;51.078;12.108;2023-05-29T03:13:18;8.10;99.90
37242;DHT22;23135;51.078;12.108;2023-05-29T03:15:44;8.10;99.90
37242;DHT22;23135;51.078;12.108;2023-05-29T03:18:09;8.00;99.90
37242;DHT22;23135;51.078;12.108;2023-05-29T03:20:35;8.00;99.90
37242;DHT22;23135;51.078;12.108;2023-05-29T03:23:01;8.10;99.90
37242;DHT22;23135;51.078;12.108;2023-05-29T03:25:26;8.20;99.90
37242;DHT22;23135;51.078;12.108;2023-05-29T03:27:52;8.20;99.90
37242;DHT22;23135;51.078;12.108;2023-05-29T03:30:18;8.30;99.90
37242;DHT22;23135;51.078;12.108;2023-05-29T03:32:45;8.40;99.90
37242;DHT22;23135;51.078;12.108;2023-05-29T03:35:11;8.50;99.90
37242;DHT22;23135;51.078;12.108;2023-05-29T03:37:37;8.60;99.90
37242;DHT22;23135;51.078;12.108;2023-05-29T03:40:02;8.70;99.90
37242;DHT22;23135;51.078;12.108;2023-05-29T03:42:29;8.70;99.90
37242;DHT22;23135;51.078;12.108;2023-05-29T03:44:56;8.80;99.90
37242;DHT22;23135;51.078;12.108;2023-05-29T03:47:22;8.80;99.90
37242;DHT22;23135;51.078;12.108;2023-05-29T03:49:48;8.90;99.90
37242;DHT22;23135;51.078;12.108;2023-05-29T03:52:13;8.90;99.90
37242;DHT22;23135;51.078;12.108;2023-05-29T03:54:39;9.00;99.90
37242;DHT22;23135;51.078;12.108;2023-05-29T03:57:04;9.00;99.90
37242;DHT22;23135;51.078;12.108;2023-05-29T03:59:32;9.00;99.90
37242;DHT22;23135;51.078;12.108;2023-05-29T04:01:57;9.00;99.90
37242;DHT22;23135;51.078;12.108;2023-05-29T04:04:23;9.00;99.90
37242;DHT22;23135;51.078;12.108;2023-05-29T04:06:48;9.10;99.90
37242;DHT22;23135;51.078;12.108;2023-05-29T04:09:14;9.10;99.90
37242;DHT22;23135;51.078;12.108;2023-05-29T04:11:40;9.20;99.90
37242;DHT22;23135;51.078;12.108;2023-05-29T04:14:07;9.10;99.90
37242;DHT22;23135;51.078;12.108;2023-05-29T04:16:32;9.20;99.90
37242;DHT22;23135;51.078;12.108;2023-05-29T04:18:58;9.30;99.90
37242;DHT22;23135;51.078;12.108;2023-05-29T04:21:23;9.30;99.90
37242;DHT22;23135;51.078;12.108;2023-05-29T04:23:49;9.30;99.90
37242;DHT22;23135;51.078;12.108;2023-05-29T04:26:15;9.30;99.90
37242;DHT22;23135;51.078;12.108;2023-05-29T04:28:40;9.40;99.90
37242;DHT22;23135;51.078;12.108;2023-05-29T04:31:07;9.40;99.90
37242;DHT22;23135;51.078;12.108;2023-05-29T04:33:33;9.40;99.90
37242;DHT22;23135;51.078;12.108;2023-05-29T04:36:02;9.50;99.90
37242;DHT22;23135;51.078;12.108;2023-05-29T04:38:29;9.60;99.90
37242;DHT22;23135;51.078;12.108;2023-05-29T04:40:56;9.60;99.90
37242;DHT22;23135;51.078;12.108;2023-05-29T04:43:24;9.70;99.90
37242;DHT22;23135;51.078;12.108;2023-05-29T04:45:54;9.70;99.90
37242;DHT22;23135;51.078;12.108;2023-05-29T04:48:20;9.80;99.90
37242;DHT22;23135;51.078;12.108;2023-05-29T04:50:46;9.90;99.90
37242;DHT22;23135;51.078;12.108;2023-05-29T04:53:11;10.00;99.90
37242;DHT22;23135;51.078;12.108;2023-05-29T04:55:37;10.10;99.90
37242;DHT22;23135;51.078;12.108;2023-05-29T04:58:03;10.20;99.90
37242;DHT22;23135;51.078;12.108;2023-05-29T05:00:28;10.20;99.90
37242;DHT22;23135;51.078;12.108;2023-05-29T05:02:54;10.30;99.90
37242;DHT22;23135;51.078;12.108;2023-05-29T05:05:20;10.40;99.90
37242;DHT22;23135;51.078;12.108;2023-05-29T05:07:46;10.50;99.90
37242;DHT22;23135;51.078;12.108;2023-05-29T05:10:11;10.50;99.90
37242;DHT22;23135;51.078;12.108;2023-05-29T05:12:37;10.60;99.90
37242;DHT22;23135;51.078;12.108;2023-05-29T05:15:03;10.70;99.90
37242;DHT22;23135;51.078;12.108;2023-05-29T05:17:29;10.80;99.90
37242;DHT22;23135;51.078;12.108;2023-05-29T05:19:55;10.90;99.90
37242;DHT22;23135;51.078;12.108;2023-05-29T05:22:21;11.00;99.90
37242;DHT22;23135;51.078;12.108;2023-05-29T05:24:46;11.10;99.90
37242;DHT22;23135;51.078;12.108;2023-05-29T05:27:12;11.20;99.90
37242;DHT22;23135;51.078;12.108;2023-05-29T05:29:38;11.30;99.90
37242;DHT22;23135;51.078;12.108;2023-05-29T05:32:04;11.40;99.90
37242;DHT22;23135;51.078;12.108;2023-05-29T05:34:29;11.50;99.90
37242;DHT22;23135;51.078;12.108;2023-05-29T05:36:55;11.60;99.90
37242;DHT22;23135;51.078;12.108;2023-05-29T05:39:20;11.90;99.90
37242;DHT22;23135;51.078;12.108;2023-05-29T05:41:46;12.20;99.90
37242;DHT22;23135;51.078;12.108;2023-05-29T05:44:12;12.40;99.90
37242;DHT22;23135;51.078;12.108;2023-05-29T05:46:37;12.70;99.90
37242;DHT22;23135;51.078;12.108;2023-05-29T05:49:03;13.00;99.90
37242;DHT22;23135;51.078;12.108;2023-05-29T05:51:28;13.10;99.90
37242;DHT22;23135;51.078;12.108;2023-05-29T05:53:54;13.20;99.90
37242;DHT22;23135;51.078;12.108;2023-05-29T05:56:20;13.40;99.90
37242;DHT22;23135;51.078;12.108;2023-05-29T05:58:45;13.50;99.90
37242;DHT22;23135;51.078;12.108;2023-05-29T06:01:11;13.80;99.90
37242;DHT22;23135;51.078;12.108;2023-05-29T06:03:36;13.90;99.90
37242;DHT22;23135;51.078;12.108;2023-05-29T06:06:03;13.90;99.90
37242;DHT22;23135;51.078;12.108;2023-05-29T06:08:30;14.00;99.90
37242;DHT22;23135;51.078;12.108;2023-05-29T06:10:56;14.10;99.90
37242;DHT22;23135;51.078;12.108;2023-05-29T06:13:21;14.30;99.90
37242;DHT22;23135;51.078;12.108;2023-05-29T06:15:47;14.40;99.90
37242;DHT22;23135;51.078;12.108;2023-05-29T06:18:12;14.50;99.90
37242;DHT22;23135;51.078;12.108;2023-05-29T06:20:38;14.50;99.90
37242;DHT22;23135;51.078;12.108;2023-05-29T06:23:04;14.60;99.90
37242;DHT22;23135;51.078;12.108;2023-05-29T06:25:30;14.80;99.90
37242;DHT22;23135;51.078;12.108;2023-05-29T06:28:02;14.90;99.90
37242;DHT22;23135;51.078;12.108;2023-05-29T06:30:31;14.80;99.90
37242;DHT22;23135;51.078;12.108;2023-05-29T06:32:56;14.90;99.90
37242;DHT22;23135;51.078;12.108;2023-05-29T06:35:22;15.10;99.90
37242;DHT22;23135;51.078;12.108;2023-05-29T06:37:47;15.10;99.90
37242;DHT22;23135;51.078;12.108;2023-05-29T06:40:13;15.10;99.90
37242;DHT22;23135;51.078;12.108;2023-05-29T06:42:41;15.20;99.90
37242;DHT22;23135;51.078;12.108;2023-05-29T06:45:07;15.30;99.90
37242;DHT22;23135;51.078;12.108;2023-05-29T06:47:33;15.60;99.90
37242;DHT22;23135;51.078;12.108;2023-05-29T06:49:58;15.80;99.90
37242;DHT22;23135;51.078;12.108;2023-05-29T06:52:24;15.90;99.90
37242;DHT22;23135;51.078;12.108;2023-05-29T06:54:49;16.00;99.90
37242;DHT22;23135;51.078;12.108;2023-05-29T06:57:15;16.00;99.90
37242;DHT22;23135;51.078;12.108;2023-05-29T06:59:40;16.00;99.90
37242;DHT22;23135;51.078;12.108;2023-05-29T07:02:06;16.00;99.90
37242;DHT22;23135;51.078;12.108;2023-05-29T07:04:32;16.20;99.90
37242;DHT22;23135;51.078;12.108;2023-05-29T07:06:57;16.50;99.90
37242;DHT22;23135;51.078;12.108;2023-05-29T07:09:23;16.70;99.90
37242;DHT22;23135;51.078;12.108;2023-05-29T07:11:50;16.90;99.90
37242;DHT22;23135;51.078;12.108;2023-05-29T07:14:16;16.90;99.90
37242;DHT22;23135;51.078;12.108;2023-05-29T07:16:41;17.10;99.90
37242;DHT22;23135;51.078;12.108;2023-05-29T07:19:07;16.90;99.90
37242;DHT22;23135;51.078;12.108;2023-05-29T07:21:32;17.00;99.90
37242;DHT22;23135;51.078;12.108;2023-05-29T07:23:59;17.30;99.90
37242;DHT22;23135;51.078;12.108;2023-05-29T07:26:24;17.40;99.90
37242;DHT22;23135;51.078;12.108;2023-05-29T07:28:50;17.70;99.90
37242;DHT22;23135;51.078;12.108;2023-05-29T07:31:16;17.90;99.90
37242;DHT22;23135;51.078;12.108;2023-05-29T07:33:41;18.10;99.90
37242;DHT22;23135;51.078;12.108;2023-05-29T07:36:07;18.30;99.90
37242;DHT22;23135;51.078;12.108;2023-05-29T07:38:33;18.30;99.90
37242;DHT22;23135;51.078;12.108;2023-05-29T07:40:58;18.20;99.90
37242;DHT22;23135;51.078;12.108;2023-05-29T07:43:24;18.40;99.90
37242;DHT22;23135;51.078;12.108;2023-05-29T07:45:50;18.70;99.90
37242;DHT22;23135;51.078;12.108;2023-05-29T07:48:15;18.80;99.90
37242;DHT22;23135;51.078;12.108;2023-05-29T07:50:41;18.60;99.90
37242;DHT22;23135;51.078;12.108;2023-05-29T07:53:07;18.50;99.90
37242;DHT22;23135;51.078;12.108;2023-05-29T07:55:34;18.70;99.90
37242;DHT22;23135;51.078;12.108;2023-05-29T07:57:59;18.60;99.90
37242;DHT22;23135;51.078;12.108;2023-05-29T08:00:27;18.70;99.90
37242;DHT22;23135;51.078;12.108;2023-05-29T08:02:53;18.90;99.90
37242;DHT22;23135;51.078;12.108;2023-05-29T08:05:19;19.20;99.90
37242;DHT22;23135;51.078;12.108;2023-05-29T08:07:45;19.50;99.90
37242;DHT22;23135;51.078;12.108;2023-05-29T08:10:12;20.00;99.90
37242;DHT22;23135;51.078;12.108;2023-05-29T08:12:37;20.30;99.90
37242;DHT22;23135;51.078;12.108;2023-05-29T08:15:03;20.30;99.30
37242;DHT22;23135;51.078;12.108;2023-05-29T08:17:29;20.10;99.20
37242;DHT22;23135;51.078;12.108;2023-05-29T08:19:55;20.60;98.20
37242;DHT22;23135;51.078;12.108;2023-05-29T08:22:28;20.60;98.50
37242;DHT22;23135;51.078;12.108;2023-05-29T08:24:53;20.90;99.20
37242;DHT22;23135;51.078;12.108;2023-05-29T08:27:19;21.10;96.80
37242;DHT22;23135;51.078;12.108;2023-05-29T08:29:44;21.10;96.30
37242;DHT22;23135;51.078;12.108;2023-05-29T08:32:10;21.20;96.60
37242;DHT22;23135;51.078;12.108;2023-05-29T08:34:35;20.80;96.40
37242;DHT22;23135;51.078;12.108;2023-05-29T08:37:01;20.90;97.90
37242;DHT22;23135;51.078;12.108;2023-05-29T08:39:27;21.30;97.80
37242;DHT22;23135;51.078;12.108;2023-05-29T08:42:07;21.70;98.10
37242;DHT22;23135;51.078;12.108;2023-05-29T08:44:39;21.80;96.40
37242;DHT22;23135;51.078;12.108;2023-05-29T08:47:07;21.70;96.00
37242;DHT22;23135;51.078;12.108;2023-05-29T08:49:42;21.70;96.60
37242;DHT22;23135;51.078;12.108;2023-05-29T08:52:27;22.00;96.00
37242;DHT22;23135;51.078;12.108;2023-05-29T08:54:55;21.70;95.50
37242;DHT22;23135;51.078;12.108;2023-05-29T08:57:21;21.60;95.70
37242;DHT22;23135;51.078;12.108;2023-05-29T08:59:51;21.50;96.20
37242;DHT22;23135;51.078;12.108;2023-05-29T09:02:17;21.70;95.50
37242;DHT22;23135;51.078;12.108;2023-05-29T09:04:43;21.80;95.80
37242;DHT22;23135;51.078;12.108;2023-05-29T09:07:16;22.10;96.00
37242;DHT22;23135;51.078;12.108;2023-05-29T09:09:45;22.40;96.30
37242;DHT22;23135;51.078;12.108;2023-05-29T09:12:10;22.50;95.60
37242;DHT22;23135;51.078;12.108;2023-05-29T09:14:41;22.70;95.50
37242;DHT22;23135;51.078;12.108;2023-05-29T09:17:08;22.90;93.90
37242;DHT22;23135;51.078;12.108;2023-05-29T09:19:37;22.80;93.60
37242;DHT22;23135;51.078;12.108;2023-05-29T09:22:06;22.30;94.10
37242;DHT22;23135;51.078;12.108;2023-05-29T09:24:33;22.60;94.50
37242;DHT22;23135;51.078;12.108;2023-05-29T09:27:00;22.60;95.10
37242;DHT22;23135;51.078;12.108;2023-05-29T09:29:30;23.00;94.70
37242;DHT22;23135;51.078;12.108;2023-05-29T09:31:56;23.40;95.20
37242;DHT22;23135;51.078;12.108;2023-05-29T09:34:24;23.80;94.50
37242;DHT22;23135;51.078;12.108;2023-05-29T09:36:52;23.80;93.10
37242;DHT22;23135;51.078;12.108;2023-05-29T09:39:18;23.40;93.00
37242;DHT22;23135;51.078;12.108;2023-05-29T09:41:44;23.40;93.50
37242;DHT22;23135;51.078;12.108;2023-05-29T09:44:13;23.60;93.80
37242;DHT22;23135;51.078;12.108;2023-05-29T09:46:42;23.70;92.80
37242;DHT22;23135;51.078;12.108;2023-05-29T09:49:11;23.90;92.30
37242;DHT22;23135;51.078;12.108;2023-05-29T09:51:36;24.00;91.50
37242;DHT22;23135;51.078;12.108;2023-05-29T09:54:15;23.90;91.80
37242;DHT22;23135;51.078;12.108;2023-05-29T09:56:42;23.60;92.00
37242;DHT22;23135;51.078;12.108;2023-05-29T09:59:12;23.80;93.10
37242;DHT22;23135;51.078;12.108;2023-05-29T10:01:43;24.10;92.50
37242;DHT22;23135;51.078;12.108;2023-05-29T10:04:12;24.30;92.70
37242;DHT22;23135;51.078;12.108;2023-05-29T10:06:43;24.30;91.50
37242;DHT22;23135;51.078;12.108;2023-05-29T10:09:10;24.20;92.20
37242;DHT22;23135;51.078;12.108;2023-05-29T10:11:38;24.00;91.20
37242;DHT22;23135;51.078;12.108;2023-05-29T10:14:06;24.10;92.40
37242;DHT22;23135;51.078;12.108;2023-05-29T10:16:34;24.30;91.50
37242;DHT22;23135;51.078;12.108;2023-05-29T10:19:06;24.20;90.60
37242;DHT22;23135;51.078;12.108;2023-05-29T10:21:37;24.10;91.40
37242;DHT22;23135;51.078;12.108;2023-05-29T10:24:07;23.90;89.80
37242;DHT22;23135;51.078;12.108;2023-05-29T10:26:36;23.30;89.10
37242;DHT22;23135;51.078;12.108;2023-05-29T10:29:15;23.70;91.30
37242;DHT22;23135;51.078;12.108;2023-05-29T10:32:07;24.30;90.90
37242;DHT22;23135;51.078;12.108;2023-05-29T10:37:42;24.50;90.10
37242;DHT22;23135;51.078;12.108;2023-05-29T10:40:10;25.00;90.10
37242;DHT22;23135;51.078;12.108;2023-05-29T10:45:07;25.80;87.00
37242;DHT22;23135;51.078;12.108;2023-05-29T10:47:33;26.10;87.20
37242;DHT22;23135;51.078;12.108;2023-05-29T10:50:02;26.10;85.50
37242;DHT22;23135;51.078;12.108;2023-05-29T10:52:32;25.80;82.40
37242;DHT22;23135;51.078;12.108;2023-05-29T10:55:05;25.80;82.40
37242;DHT22;23135;51.078;12.108;2023-05-29T10:57:31;26.00;81.70
37242;DHT22;23135;51.078;12.108;2023-05-29T11:00:03;26.10;84.20
37242;DHT22;23135;51.078;12.108;2023-05-29T11:02:31;26.10;81.60
37242;DHT22;23135;51.078;12.108;2023-05-29T11:05:19;26.10;81.30
37242;DHT22;23135;51.078;12.108;2023-05-29T11:07:59;26.00;81.70
37242;DHT22;23135;51.078;12.108;2023-05-29T11:13:26;24.90;80.80
37242;DHT22;23135;51.078;12.108;2023-05-29T11:16:19;25.30;83.40
37242;DHT22;23135;51.078;12.108;2023-05-29T11:18:46;26.20;83.00
37242;DHT22;23135;51.078;12.108;2023-05-29T11:22:14;25.80;81.00
37242;DHT22;23135;51.078;12.108;2023-05-29T11:24:27;25.40;80.80
37242;DHT22;23135;51.078;12.108;2023-05-29T11:26:55;25.60;79.20
37242;DHT22;23135;51.078;12.108;2023-05-29T11:29:26;25.60;79.80
37242;DHT22;23135;51.078;12.108;2023-05-29T11:31:58;25.70;80.70
37242;DHT22;23135;51.078;12.108;2023-05-29T11:34:27;25.90;80.00
37242;DHT22;23135;51.078;12.108;2023-05-29T11:36:53;25.70;81.20
37242;DHT22;23135;51.078;12.108;2023-05-29T11:39:19;25.40;79.30
37242;DHT22;23135;51.078;12.108;2023-05-29T11:41:44;24.80;78.40
37242;DHT22;23135;51.078;12.108;2023-05-29T11:44:13;24.20;80.10
37242;DHT22;23135;51.078;12.108;2023-05-29T11:46:39;23.50;80.30
37242;DHT22;23135;51.078;12.108;2023-05-29T11:49:05;23.30;82.70
37242;DHT22;23135;51.078;12.108;2023-05-29T11:51:31;23.30;82.90
37242;DHT22;23135;51.078;12.108;2023-05-29T11:53:57;24.00;81.90
37242;DHT22;23135;51.078;12.108;2023-05-29T11:56:27;25.00;81.80
37242;DHT22;23135;51.078;12.108;2023-05-29T11:58:53;26.10;80.70
37242;DHT22;23135;51.078;12.108;2023-05-29T12:01:22;26.60;81.30
37242;DHT22;23135;51.078;12.108;2023-05-29T12:03:49;26.50;77.50
37242;DHT22;23135;51.078;12.108;2023-05-29T12:06:15;26.10;76.90
37242;DHT22;23135;51.078;12.108;2023-05-29T12:08:40;25.60;77.30
37242;DHT22;23135;51.078;12.108;2023-05-29T12:11:06;25.60;77.60
37242;DHT22;23135;51.078;12.108;2023-05-29T12:13:33;25.50;77.10
37242;DHT22;23135;51.078;12.108;2023-05-29T12:16:01;26.00;78.80
37242;DHT22;23135;51.078;12.108;2023-05-29T12:18:28;26.30;80.60
37242;DHT22;23135;51.078;12.108;2023-05-29T12:21:01;26.00;77.10
37242;DHT22;23135;51.078;12.108;2023-05-29T12:23:28;26.40;77.90
37242;DHT22;23135;51.078;12.108;2023-05-29T12:25:54;26.40;76.10
37242;DHT22;23135;51.078;12.108;2023-05-29T12:28:20;26.50;76.10
37242;DHT22;23135;51.078;12.108;2023-05-29T12:30:47;26.60;73.60
37242;DHT22;23135;51.078;12.108;2023-05-29T12:33:33;26.20;72.90
37242;DHT22;23135;51.078;12.108;2023-05-29T12:36:07;25.90;75.10
37242;DHT22;23135;51.078;12.108;2023-05-29T12:38:49;26.10;73.80
37242;DHT22;23135;51.078;12.108;2023-05-29T12:41:29;25.80;73.30
37242;DHT22;23135;51.078;12.108;2023-05-29T12:43:56;25.20;75.20
37242;DHT22;23135;51.078;12.108;2023-05-29T12:46:23;25.20;77.60
37242;DHT22;23135;51.078;12.108;2023-05-29T12:48:48;25.20;77.50
37242;DHT22;23135;51.078;12.108;2023-05-29T12:51:17;24.80;76.60
37242;DHT22;23135;51.078;12.108;2023-05-29T12:53:43;24.30;76.60
37242;DHT22;23135;51.078;12.108;2023-05-29T12:56:08;23.90;78.40
37242;DHT22;23135;51.078;12.108;2023-05-29T12:58:34;23.70;77.70
37242;DHT22;23135;51.078;12.108;2023-05-29T13:00:59;23.60;79.40
37242;DHT22;23135;51.078;12.108;2023-05-29T13:03:25;23.40;78.20
37242;DHT22;23135;51.078;12.108;2023-05-29T13:05:51;23.40;77.30
37242;DHT22;23135;51.078;12.108;2023-05-29T13:08:18;23.50;78.70
37242;DHT22;23135;51.078;12.108;2023-05-29T13:10:44;23.40;77.40
37242;DHT22;23135;51.078;12.108;2023-05-29T13:13:10;23.50;77.60
37242;DHT22;23135;51.078;12.108;2023-05-29T13:15:37;23.80;76.60
37242;DHT22;23135;51.078;12.108;2023-05-29T13:18:03;24.30;77.70
37242;DHT22;23135;51.078;12.108;2023-05-29T13:20:29;24.70;79.50
37242;DHT22;23135;51.078;12.108;2023-05-29T13:22:57;25.30;76.00
37242;DHT22;23135;51.078;12.108;2023-05-29T13:25:22;25.70;75.40
37242;DHT22;23135;51.078;12.108;2023-05-29T13:27:49;26.10;73.60
37242;DHT22;23135;51.078;12.108;2023-05-29T13:30:16;26.30;74.40
37242;DHT22;23135;51.078;12.108;2023-05-29T13:32:42;26.50;73.50
37242;DHT22;23135;51.078;12.108;2023-05-29T13:35:08;26.40;72.40
37242;DHT22;23135;51.078;12.108;2023-05-29T13:37:36;26.20;72.80
37242;DHT22;23135;51.078;12.108;2023-05-29T13:40:01;26.40;71.60
37242;DHT22;23135;51.078;12.108;2023-05-29T13:42:27;26.20;71.40
37242;DHT22;23135;51.078;12.108;2023-05-29T13:44:53;26.50;74.10
37242;DHT22;23135;51.078;12.108;2023-05-29T13:47:19;26.50;71.20
37242;DHT22;23135;51.078;12.108;2023-05-29T13:49:44;26.90;71.80
37242;DHT22;23135;51.078;12.108;2023-05-29T13:52:10;26.50;70.40
37242;DHT22;23135;51.078;12.108;2023-05-29T13:54:35;26.50;72.50
37242;DHT22;23135;51.078;12.108;2023-05-29T13:57:04;26.40;70.90
37242;DHT22;23135;51.078;12.108;2023-05-29T13:59:32;25.80;71.90
37242;DHT22;23135;51.078;12.108;2023-05-29T14:01:58;25.50;71.20
37242;DHT22;23135;51.078;12.108;2023-05-29T14:04:24;25.60;72.60
37242;DHT22;23135;51.078;12.108;2023-05-29T14:06:50;25.90;72.70
37242;DHT22;23135;51.078;12.108;2023-05-29T14:09:16;25.80;74.20
37242;DHT22;23135;51.078;12.108;2023-05-29T14:11:42;25.50;72.70
37242;DHT22;23135;51.078;12.108;2023-05-29T14:14:07;24.90;73.10
37242;DHT22;23135;51.078;12.108;2023-05-29T14:16:33;24.60;72.60
37242;DHT22;23135;51.078;12.108;2023-05-29T14:18:59;24.30;71.80
37242;DHT22;23135;51.078;12.108;2023-05-29T14:21:25;24.30;73.00
37242;DHT22;23135;51.078;12.108;2023-05-29T14:23:51;24.10;72.10
37242;DHT22;23135;51.078;12.108;2023-05-29T14:26:16;23.70;73.80
37242;DHT22;23135;51.078;12.108;2023-05-29T14:28:42;23.60;75.20
37242;DHT22;23135;51.078;12.108;2023-05-29T14:31:08;23.50;74.10
37242;DHT22;23135;51.078;12.108;2023-05-29T14:33:33;23.30;74.80
37242;DHT22;23135;51.078;12.108;2023-05-29T14:36:02;23.30;74.20
37242;DHT22;23135;51.078;12.108;2023-05-29T14:38:28;23.70;75.70
37242;DHT22;23135;51.078;12.108;2023-05-29T14:40:54;23.70;73.60
37242;DHT22;23135;51.078;12.108;2023-05-29T14:43:19;23.70;74.20
37242;DHT22;23135;51.078;12.108;2023-05-29T14:45:45;23.80;72.70
37242;DHT22;23135;51.078;12.108;2023-05-29T14:48:11;23.70;72.90
37242;DHT22;23135;51.078;12.108;2023-05-29T14:50:36;23.80;73.70
37242;DHT22;23135;51.078;12.108;2023-05-29T14:53:02;23.50;74.70
37242;DHT22;23135;51.078;12.108;2023-05-29T14:55:28;23.50;75.90
37242;DHT22;23135;51.078;12.108;2023-05-29T14:57:56;23.50;75.30
37242;DHT22;23135;51.078;12.108;2023-05-29T15:00:21;23.20;76.50
37242;DHT22;23135;51.078;12.108;2023-05-29T15:02:47;23.30;77.40
37242;DHT22;23135;51.078;12.108;2023-05-29T15:05:12;23.30;77.10
37242;DHT22;23135;51.078;12.108;2023-05-29T15:07:38;23.30;78.10
37242;DHT22;23135;51.078;12.108;2023-05-29T15:10:04;23.30;76.80
37242;DHT22;23135;51.078;12.108;2023-05-29T15:12:33;23.20;76.60
37242;DHT22;23135;51.078;12.108;2023-05-29T15:14:58;23.00;75.90
37242;DHT22;23135;51.078;12.108;2023-05-29T15:17:24;23.00;76.10
37242;DHT22;23135;51.078;12.108;2023-05-29T15:19:50;23.00;76.40
37242;DHT22;23135;51.078;12.108;2023-05-29T15:22:15;23.00;75.70
37242;DHT22;23135;51.078;12.108;2023-05-29T15:24:41;22.90;75.30
37242;DHT22;23135;51.078;12.108;2023-05-29T15:27:07;22.80;76.00
37242;DHT22;23135;51.078;12.108;2023-05-29T15:29:34;22.90;76.30
37242;DHT22;23135;51.078;12.108;2023-05-29T15:32:00;23.00;76.50
37242;DHT22;23135;51.078;12.108;2023-05-29T15:34:26;23.10;77.20
37242;DHT22;23135;51.078;12.108;2023-05-29T15:36:52;23.10;77.20
37242;DHT22;23135;51.078;12.108;2023-05-29T15:39:18;23.00;76.70
37242;DHT22;23135;51.078;12.108;2023-05-29T15:41:43;22.80;77.80